sensor_id;sensor_type;location;lat;lon;timestamp;P1;durP1;ratioP1;P2;durP2;ratioP2
61015;SDS011;46902;52.920;6.536;2023-05-10T00:01:37;10.00;;;8.98;;
61015;SDS011;46902;52.920;6.536;2023-05-10T00:04:03;9.73;;;8.75;;
61015;SDS011;46902;52.920;6.536;2023-05-10T00:06:29;9.30;;;8.40;;
61015;SDS011;46902;52.920;6.536;2023-05-10T00:08:55;10.10;;;9.05;;
61015;SDS011;46902;52.920;6.536;2023-05-10T00:11:20;9.05;;;8.18;;
61015;SDS011;46902;52.920;6.536;2023-05-10T00:13:46;9.68;;;8.68;;
61015;SDS011;46902;52.920;6.536;2023-05-10T00:16:12;8.13;;;7.32;;
61015;SDS011;46902;52.920;6.536;2023-05-10T00:18:38;8.60;;;7.80;;
61015;SDS011;46902;52.920;6.536;2023-05-10T00:21:04;8.25;;;7.45;;
61015;SDS011;46902;52.920;6.536;2023-05-10T00:23:31;8.90;;;8.00;;
61015;SDS011;46902;52.920;6.536;2023-05-10T00:25:56;9.13;;;8.23;;
61015;SDS011;46902;52.920;6.536;2023-05-10T00:28:22;12.13;;;9.13;;
61015;SDS011;46902;52.920;6.536;2023-05-10T00:30:48;9.02;;;8.15;;
61015;SDS011;46902;52.920;6.536;2023-05-10T00:33:13;8.32;;;7.40;;
61015;SDS011;46902;52.920;6.536;2023-05-10T00:35:39;8.88;;;8.05;;
61015;SDS011;46902;52.920;6.536;2023-05-10T00:38:05;10.38;;;8.77;;
61015;SDS011;46902;52.920;6.536;2023-05-10T00:40:31;10.02;;;8.73;;
61015;SDS011;46902;52.920;6.536;2023-05-10T00:42:57;9.77;;;8.75;;
61015;SDS011;46902;52.920;6.536;2023-05-10T00:45:23;9.68;;;8.65;;
61015;SDS011;46902;52.920;6.536;2023-05-10T00:47:50;8.75;;;7.82;;
61015;SDS011;46902;52.920;6.536;2023-05-10T00:50:17;15.57;;;10.50;;
61015;SDS011;46902;52.920;6.536;2023-05-10T00:52:43;11.05;;;9.85;;
61015;SDS011;46902;52.920;6.536;2023-05-10T00:55:09;11.95;;;9.27;;
61015;SDS011;46902;52.920;6.536;2023-05-10T00:57:36;8.85;;;8.00;;
61015;SDS011;46902;52.920;6.536;2023-05-10T01:00:02;11.50;;;9.05;;
61015;SDS011;46902;52.920;6.536;2023-05-10T01:02:28;12.55;;;9.30;;
61015;SDS011;46902;52.920;6.536;2023-05-10T01:04:53;9.70;;;8.70;;
61015;SDS011;46902;52.920;6.536;2023-05-10T01:07:19;8.95;;;8.05;;
61015;SDS011;46902;52.920;6.536;2023-05-10T01:09:45;10.07;;;9.00;;
61015;SDS011;46902;52.920;6.536;2023-05-10T01:12:11;10.95;;;8.80;;
61015;SDS011;46902;52.920;6.536;2023-05-10T01:14:37;11.95;;;9.02;;
61015;SDS011;46902;52.920;6.536;2023-05-10T01:17:03;10.30;;;9.00;;
61015;SDS011;46902;52.920;6.536;2023-05-10T01:19:31;10.93;;;9.82;;
61015;SDS011;46902;52.920;6.536;2023-05-10T01:22:32;12.00;;;9.35;;
61015;SDS011;46902;52.920;6.536;2023-05-10T01:36:19;10.45;;;8.30;;
61015;SDS011;46902;52.920;6.536;2023-05-10T01:41:39;14.90;;;9.70;;
61015;SDS011;46902;52.920;6.536;2023-05-10T01:47:05;10.00;;;8.70;;
61015;SDS011;46902;52.920;6.536;2023-05-10T01:49:52;9.82;;;8.80;;
61015;SDS011;46902;52.920;6.536;2023-05-10T01:52:22;11.57;;;8.98;;
61015;SDS011;46902;52.920;6.536;2023-05-10T01:55:00;10.20;;;8.75;;
61015;SDS011;46902;52.920;6.536;2023-05-10T01:57:32;8.70;;;7.80;;
61015;SDS011;46902;52.920;6.536;2023-05-10T01:59:59;11.07;;;8.80;;
61015;SDS011;46902;52.920;6.536;2023-05-10T02:02:26;10.13;;;8.75;;
61015;SDS011;46902;52.920;6.536;2023-05-10T02:04:53;13.45;;;7.95;;
61015;SDS011;46902;52.920;6.536;2023-05-10T02:07:21;12.48;;;8.15;;
61015;SDS011;46902;52.920;6.536;2023-05-10T02:09:48;9.85;;;7.97;;
61015;SDS011;46902;52.920;6.536;2023-05-10T02:12:16;11.70;;;9.02;;
61015;SDS011;46902;52.920;6.536;2023-05-10T02:14:43;12.32;;;8.93;;
61015;SDS011;46902;52.920;6.536;2023-05-10T02:17:10;10.18;;;8.43;;
61015;SDS011;46902;52.920;6.536;2023-05-10T02:19:37;9.45;;;8.05;;
61015;SDS011;46902;52.920;6.536;2023-05-10T02:22:05;13.27;;;9.35;;
61015;SDS011;46902;52.920;6.536;2023-05-10T02:24:33;9.35;;;7.80;;
61015;SDS011;46902;52.920;6.536;2023-05-10T02:27:00;10.50;;;8.95;;
61015;SDS011;46902;52.920;6.536;2023-05-10T02:29:28;11.00;;;8.10;;
61015;SDS011;46902;52.920;6.536;2023-05-10T02:31:56;11.43;;;8.38;;
61015;SDS011;46902;52.920;6.536;2023-05-10T02:34:23;12.57;;;9.07;;
61015;SDS011;46902;52.920;6.536;2023-05-10T02:36:51;9.85;;;7.85;;
61015;SDS011;46902;52.920;6.536;2023-05-10T02:39:18;9.23;;;8.13;;
61015;SDS011;46902;52.920;6.536;2023-05-10T02:41:45;8.77;;;7.53;;
61015;SDS011;46902;52.920;6.536;2023-05-10T02:44:14;9.52;;;8.50;;
61015;SDS011;46902;52.920;6.536;2023-05-10T02:46:42;9.90;;;7.50;;
61015;SDS011;46902;52.920;6.536;2023-05-10T02:49:08;9.50;;;7.40;;
61015;SDS011;46902;52.920;6.536;2023-05-10T02:51:34;10.93;;;8.40;;
61015;SDS011;46902;52.920;6.536;2023-05-10T02:54:04;11.25;;;9.20;;
61015;SDS011;46902;52.920;6.536;2023-05-10T02:56:35;10.63;;;8.13;;
61015;SDS011;46902;52.920;6.536;2023-05-10T02:59:04;11.43;;;8.25;;
61015;SDS011;46902;52.920;6.536;2023-05-10T03:01:30;10.77;;;8.38;;
61015;SDS011;46902;52.920;6.536;2023-05-10T03:03:55;9.52;;;8.52;;
61015;SDS011;46902;52.920;6.536;2023-05-10T03:06:21;9.95;;;8.57;;
61015;SDS011;46902;52.920;6.536;2023-05-10T03:08:47;10.43;;;8.68;;
61015;SDS011;46902;52.920;6.536;2023-05-10T03:13:48;10.82;;;8.30;;
61015;SDS011;46902;52.920;6.536;2023-05-10T03:16:42;9.75;;;8.20;;
61015;SDS011;46902;52.920;6.536;2023-05-10T03:19:27;11.63;;;7.70;;
61015;SDS011;46902;52.920;6.536;2023-05-10T03:22:05;13.18;;;8.30;;
61015;SDS011;46902;52.920;6.536;2023-05-10T03:24:35;9.45;;;8.07;;
61015;SDS011;46902;52.920;6.536;2023-05-10T03:27:03;9.85;;;7.47;;
61015;SDS011;46902;52.920;6.536;2023-05-10T03:29:29;7.55;;;6.40;;
61015;SDS011;46902;52.920;6.536;2023-05-10T03:31:57;10.27;;;7.20;;
61015;SDS011;46902;52.920;6.536;2023-05-10T03:34:24;7.82;;;6.90;;
61015;SDS011;46902;52.920;6.536;2023-05-10T03:36:50;6.07;;;5.28;;
61015;SDS011;46902;52.920;6.536;2023-05-10T03:39:16;9.23;;;5.68;;
61015;SDS011;46902;52.920;6.536;2023-05-10T03:41:41;6.90;;;5.72;;
61015;SDS011;46902;52.920;6.536;2023-05-10T03:44:07;6.88;;;5.60;;
61015;SDS011;46902;52.920;6.536;2023-05-10T03:46:33;6.60;;;4.65;;
61015;SDS011;46902;52.920;6.536;2023-05-10T03:48:58;7.78;;;4.93;;
61015;SDS011;46902;52.920;6.536;2023-05-10T03:51:24;5.72;;;5.10;;
61015;SDS011;46902;52.920;6.536;2023-05-10T03:53:53;6.80;;;5.40;;
61015;SDS011;46902;52.920;6.536;2023-05-10T03:56:21;6.90;;;5.53;;
61015;SDS011;46902;52.920;6.536;2023-05-10T03:58:47;5.03;;;4.40;;
61015;SDS011;46902;52.920;6.536;2023-05-10T04:01:13;7.47;;;5.00;;
61015;SDS011;46902;52.920;6.536;2023-05-10T04:03:38;8.25;;;4.70;;
61015;SDS011;46902;52.920;6.536;2023-05-10T04:06:04;6.68;;;4.85;;
61015;SDS011;46902;52.920;6.536;2023-05-10T04:08:30;7.68;;;5.47;;
61015;SDS011;46902;52.920;6.536;2023-05-10T04:11:06;5.80;;;5.05;;
61015;SDS011;46902;52.920;6.536;2023-05-10T04:13:33;6.65;;;5.15;;
61015;SDS011;46902;52.920;6.536;2023-05-10T04:15:58;7.15;;;5.72;;
61015;SDS011;46902;52.920;6.536;2023-05-10T04:18:24;7.22;;;6.15;;
61015;SDS011;46902;52.920;6.536;2023-05-10T04:20:50;7.22;;;6.53;;
61015;SDS011;46902;52.920;6.536;2023-05-10T04:23:15;8.35;;;6.50;;
61015;SDS011;46902;52.920;6.536;2023-05-10T04:25:41;9.75;;;7.10;;
61015;SDS011;46902;52.920;6.536;2023-05-10T04:28:07;8.70;;;6.90;;
61015;SDS011;46902;52.920;6.536;2023-05-10T04:30:33;10.82;;;6.53;;
61015;SDS011;46902;52.920;6.536;2023-05-10T04:32:59;7.88;;;7.05;;
61015;SDS011;46902;52.920;6.536;2023-05-10T04:35:26;7.25;;;6.53;;
61015;SDS011;46902;52.920;6.536;2023-05-10T04:37:53;7.50;;;6.70;;
61015;SDS011;46902;52.920;6.536;2023-05-10T04:40:19;7.15;;;6.28;;
61015;SDS011;46902;52.920;6.536;2023-05-10T04:42:45;7.75;;;6.28;;
61015;SDS011;46902;52.920;6.536;2023-05-10T04:45:11;7.60;;;5.93;;
61015;SDS011;46902;52.920;6.536;2023-05-10T04:47:36;8.95;;;6.18;;
61015;SDS011;46902;52.920;6.536;2023-05-10T04:50:02;6.25;;;5.45;;
61015;SDS011;46902;52.920;6.536;2023-05-10T04:52:28;6.72;;;5.97;;
61015;SDS011;46902;52.920;6.536;2023-05-10T04:54:54;6.30;;;5.70;;
61015;SDS011;46902;52.920;6.536;2023-05-10T04:57:20;7.85;;;6.95;;
61015;SDS011;46902;52.920;6.536;2023-05-10T04:59:46;6.07;;;5.53;;
61015;SDS011;46902;52.920;6.536;2023-05-10T05:02:11;6.60;;;5.90;;
61015;SDS011;46902;52.920;6.536;2023-05-10T05:04:37;8.95;;;6.18;;
61015;SDS011;46902;52.920;6.536;2023-05-10T05:07:02;6.80;;;6.07;;
61015;SDS011;46902;52.920;6.536;2023-05-10T05:09:28;8.07;;;5.85;;
61015;SDS011;46902;52.920;6.536;2023-05-10T05:11:54;9.70;;;6.57;;
61015;SDS011;46902;52.920;6.536;2023-05-10T05:14:20;6.93;;;6.22;;
61015;SDS011;46902;52.920;6.536;2023-05-10T05:16:46;6.72;;;5.13;;
61015;SDS011;46902;52.920;6.536;2023-05-10T05:19:11;5.28;;;4.78;;
61015;SDS011;46902;52.920;6.536;2023-05-10T05:21:37;6.07;;;5.15;;
61015;SDS011;46902;52.920;6.536;2023-05-10T05:24:03;7.53;;;5.20;;
61015;SDS011;46902;52.920;6.536;2023-05-10T05:26:29;6.13;;;5.40;;
61015;SDS011;46902;52.920;6.536;2023-05-10T05:28:54;7.88;;;5.53;;
61015;SDS011;46902;52.920;6.536;2023-05-10T05:31:20;6.85;;;5.07;;
61015;SDS011;46902;52.920;6.536;2023-05-10T05:33:46;8.13;;;5.70;;
61015;SDS011;46902;52.920;6.536;2023-05-10T05:36:11;7.55;;;6.00;;
61015;SDS011;46902;52.920;6.536;2023-05-10T05:38:37;7.65;;;5.43;;
61015;SDS011;46902;52.920;6.536;2023-05-10T05:41:03;7.93;;;5.28;;
61015;SDS011;46902;52.920;6.536;2023-05-10T05:43:28;5.78;;;4.53;;
61015;SDS011;46902;52.920;6.536;2023-05-10T05:45:54;6.47;;;5.35;;
61015;SDS011;46902;52.920;6.536;2023-05-10T05:48:22;6.45;;;4.93;;
61015;SDS011;46902;52.920;6.536;2023-05-10T05:50:48;7.60;;;5.47;;
61015;SDS011;46902;52.920;6.536;2023-05-10T05:53:14;4.75;;;4.35;;
61015;SDS011;46902;52.920;6.536;2023-05-10T05:55:40;4.47;;;4.00;;
61015;SDS011;46902;52.920;6.536;2023-05-10T05:58:15;5.82;;;4.30;;
61015;SDS011;46902;52.920;6.536;2023-05-10T06:00:41;6.78;;;4.25;;
61015;SDS011;46902;52.920;6.536;2023-05-10T06:03:07;6.78;;;4.18;;
61015;SDS011;46902;52.920;6.536;2023-05-10T06:05:32;5.05;;;4.20;;
61015;SDS011;46902;52.920;6.536;2023-05-10T06:07:59;4.25;;;3.85;;
61015;SDS011;46902;52.920;6.536;2023-05-10T06:10:26;5.38;;;3.70;;
61015;SDS011;46902;52.920;6.536;2023-05-10T06:12:51;8.32;;;5.32;;
61015;SDS011;46902;52.920;6.536;2023-05-10T06:15:18;6.60;;;5.70;;
61015;SDS011;46902;52.920;6.536;2023-05-10T06:17:43;6.50;;;4.88;;
61015;SDS011;46902;52.920;6.536;2023-05-10T06:20:09;5.22;;;4.10;;
61015;SDS011;46902;52.920;6.536;2023-05-10T06:22:35;5.25;;;4.43;;
61015;SDS011;46902;52.920;6.536;2023-05-10T06:25:01;5.75;;;3.33;;
61015;SDS011;46902;52.920;6.536;2023-05-10T06:27:27;3.60;;;2.85;;
61015;SDS011;46902;52.920;6.536;2023-05-10T06:29:53;4.95;;;2.72;;
61015;SDS011;46902;52.920;6.536;2023-05-10T06:32:18;3.20;;;2.00;;
61015;SDS011;46902;52.920;6.536;2023-05-10T06:34:44;3.28;;;2.28;;
61015;SDS011;46902;52.920;6.536;2023-05-10T06:37:10;2.78;;;2.15;;
61015;SDS011;46902;52.920;6.536;2023-05-10T06:39:35;2.97;;;2.20;;
61015;SDS011;46902;52.920;6.536;2023-05-10T06:42:01;3.30;;;2.40;;
61015;SDS011;46902;52.920;6.536;2023-05-10T06:44:29;2.63;;;2.22;;
61015;SDS011;46902;52.920;6.536;2023-05-10T06:46:54;2.88;;;2.00;;
61015;SDS011;46902;52.920;6.536;2023-05-10T06:49:20;2.45;;;2.25;;
61015;SDS011;46902;52.920;6.536;2023-05-10T06:51:46;3.00;;;2.67;;
61015;SDS011;46902;52.920;6.536;2023-05-10T06:54:12;3.72;;;2.65;;
61015;SDS011;46902;52.920;6.536;2023-05-10T06:56:37;3.63;;;2.58;;
61015;SDS011;46902;52.920;6.536;2023-05-10T06:59:03;3.13;;;2.70;;
61015;SDS011;46902;52.920;6.536;2023-05-10T07:01:29;3.28;;;2.42;;
61015;SDS011;46902;52.920;6.536;2023-05-10T07:03:54;3.17;;;2.40;;
61015;SDS011;46902;52.920;6.536;2023-05-10T07:06:20;2.95;;;2.30;;
61015;SDS011;46902;52.920;6.536;2023-05-10T07:08:45;3.85;;;2.60;;
61015;SDS011;46902;52.920;6.536;2023-05-10T07:11:11;3.80;;;2.72;;
61015;SDS011;46902;52.920;6.536;2023-05-10T07:13:37;3.15;;;2.53;;
61015;SDS011;46902;52.920;6.536;2023-05-10T07:16:04;4.82;;;3.33;;
61015;SDS011;46902;52.920;6.536;2023-05-10T07:18:31;4.78;;;3.22;;
61015;SDS011;46902;52.920;6.536;2023-05-10T07:20:57;4.18;;;2.70;;
61015;SDS011;46902;52.920;6.536;2023-05-10T07:23:22;3.72;;;3.00;;
61015;SDS011;46902;52.920;6.536;2023-05-10T07:25:49;3.38;;;2.63;;
61015;SDS011;46902;52.920;6.536;2023-05-10T07:28:17;3.63;;;2.95;;
61015;SDS011;46902;52.920;6.536;2023-05-10T07:30:43;4.03;;;2.95;;
61015;SDS011;46902;52.920;6.536;2023-05-10T07:33:09;4.45;;;2.75;;
61015;SDS011;46902;52.920;6.536;2023-05-10T07:35:36;3.25;;;2.60;;
61015;SDS011;46902;52.920;6.536;2023-05-10T07:38:02;4.97;;;2.78;;
61015;SDS011;46902;52.920;6.536;2023-05-10T07:40:27;5.07;;;3.00;;
61015;SDS011;46902;52.920;6.536;2023-05-10T07:42:53;2.55;;;2.35;;
61015;SDS011;46902;52.920;6.536;2023-05-10T07:45:19;2.40;;;2.20;;
61015;SDS011;46902;52.920;6.536;2023-05-10T07:47:45;2.35;;;2.05;;
61015;SDS011;46902;52.920;6.536;2023-05-10T07:50:10;3.42;;;2.40;;
61015;SDS011;46902;52.920;6.536;2023-05-10T07:52:36;4.15;;;2.30;;
61015;SDS011;46902;52.920;6.536;2023-05-10T07:55:02;3.35;;;2.47;;
61015;SDS011;46902;52.920;6.536;2023-05-10T07:57:28;4.00;;;2.67;;
61015;SDS011;46902;52.920;6.536;2023-05-10T07:59:53;3.03;;;1.98;;
61015;SDS011;46902;52.920;6.536;2023-05-10T08:02:19;5.00;;;2.60;;
61015;SDS011;46902;52.920;6.536;2023-05-10T08:04:44;2.78;;;2.30;;
61015;SDS011;46902;52.920;6.536;2023-05-10T08:07:10;4.30;;;2.55;;
61015;SDS011;46902;52.920;6.536;2023-05-10T08:09:36;4.18;;;2.78;;
61015;SDS011;46902;52.920;6.536;2023-05-10T08:12:01;3.65;;;2.78;;
61015;SDS011;46902;52.920;6.536;2023-05-10T08:14:28;5.05;;;2.90;;
61015;SDS011;46902;52.920;6.536;2023-05-10T08:16:54;2.70;;;2.47;;
61015;SDS011;46902;52.920;6.536;2023-05-10T08:19:20;2.80;;;2.50;;
61015;SDS011;46902;52.920;6.536;2023-05-10T08:21:46;4.63;;;2.67;;
61015;SDS011;46902;52.920;6.536;2023-05-10T08:24:12;3.78;;;2.60;;
61015;SDS011;46902;52.920;6.536;2023-05-10T08:26:38;3.15;;;1.95;;
61015;SDS011;46902;52.920;6.536;2023-05-10T08:29:03;8.13;;;2.42;;
61015;SDS011;46902;52.920;6.536;2023-05-10T08:31:29;4.47;;;2.38;;
61015;SDS011;46902;52.920;6.536;2023-05-10T08:33:55;2.78;;;2.25;;
61015;SDS011;46902;52.920;6.536;2023-05-10T08:36:21;4.05;;;3.38;;
61015;SDS011;46902;52.920;6.536;2023-05-10T08:38:50;4.97;;;3.00;;
61015;SDS011;46902;52.920;6.536;2023-05-10T08:41:17;4.13;;;2.83;;
61015;SDS011;46902;52.920;6.536;2023-05-10T08:43:46;3.60;;;2.85;;
61015;SDS011;46902;52.920;6.536;2023-05-10T08:46:12;4.40;;;3.10;;
61015;SDS011;46902;52.920;6.536;2023-05-10T08:48:43;3.75;;;2.70;;
61015;SDS011;46902;52.920;6.536;2023-05-10T08:51:09;2.85;;;1.95;;
61015;SDS011;46902;52.920;6.536;2023-05-10T08:53:38;3.38;;;2.50;;
61015;SDS011;46902;52.920;6.536;2023-05-10T08:56:04;5.10;;;2.67;;
61015;SDS011;46902;52.920;6.536;2023-05-10T08:58:30;4.25;;;2.60;;
61015;SDS011;46902;52.920;6.536;2023-05-10T09:01:03;4.47;;;2.08;;
61015;SDS011;46902;52.920;6.536;2023-05-10T09:03:30;3.15;;;2.00;;
61015;SDS011;46902;52.920;6.536;2023-05-10T09:05:56;4.07;;;2.47;;
61015;SDS011;46902;52.920;6.536;2023-05-10T09:08:25;3.38;;;2.33;;
61015;SDS011;46902;52.920;6.536;2023-05-10T09:10:51;3.47;;;2.60;;
61015;SDS011;46902;52.920;6.536;2023-05-10T09:13:18;3.15;;;2.22;;
61015;SDS011;46902;52.920;6.536;2023-05-10T09:15:45;2.28;;;2.03;;
61015;SDS011;46902;52.920;6.536;2023-05-10T09:18:11;4.85;;;2.35;;
61015;SDS011;46902;52.920;6.536;2023-05-10T09:20:37;3.55;;;2.58;;
61015;SDS011;46902;52.920;6.536;2023-05-10T09:23:02;3.47;;;2.50;;
61015;SDS011;46902;52.920;6.536;2023-05-10T09:25:28;4.05;;;2.53;;
61015;SDS011;46902;52.920;6.536;2023-05-10T09:27:54;3.35;;;2.40;;
61015;SDS011;46902;52.920;6.536;2023-05-10T09:30:23;3.78;;;2.67;;
61015;SDS011;46902;52.920;6.536;2023-05-10T09:32:51;4.40;;;2.95;;
61015;SDS011;46902;52.920;6.536;2023-05-10T09:35:18;3.95;;;3.33;;
61015;SDS011;46902;52.920;6.536;2023-05-10T09:37:47;5.38;;;3.45;;
61015;SDS011;46902;52.920;6.536;2023-05-10T09:40:15;5.03;;;3.17;;
61015;SDS011;46902;52.920;6.536;2023-05-10T09:42:42;3.65;;;2.60;;
61015;SDS011;46902;52.920;6.536;2023-05-10T09:45:19;3.05;;;1.98;;
61015;SDS011;46902;52.920;6.536;2023-05-10T09:47:45;4.38;;;2.00;;
61015;SDS011;46902;52.920;6.536;2023-05-10T09:50:11;3.75;;;2.60;;
61015;SDS011;46902;52.920;6.536;2023-05-10T09:52:56;3.47;;;2.25;;
61015;SDS011;46902;52.920;6.536;2023-05-10T09:55:24;4.15;;;2.45;;
61015;SDS011;46902;52.920;6.536;2023-05-10T09:57:58;2.90;;;2.60;;
61015;SDS011;46902;52.920;6.536;2023-05-10T10:00:25;3.42;;;2.80;;
61015;SDS011;46902;52.920;6.536;2023-05-10T10:02:56;4.53;;;3.05;;
61015;SDS011;46902;52.920;6.536;2023-05-10T10:05:32;5.07;;;2.42;;
61015;SDS011;46902;52.920;6.536;2023-05-10T10:07:59;5.43;;;2.35;;
61015;SDS011;46902;52.920;6.536;2023-05-10T10:10:29;3.05;;;2.42;;
61015;SDS011;46902;52.920;6.536;2023-05-10T10:12:56;4.43;;;2.90;;
61015;SDS011;46902;52.920;6.536;2023-05-10T10:15:22;4.18;;;2.42;;
61015;SDS011;46902;52.920;6.536;2023-05-10T10:17:49;3.42;;;2.42;;
61015;SDS011;46902;52.920;6.536;2023-05-10T10:20:16;6.22;;;2.53;;
61015;SDS011;46902;52.920;6.536;2023-05-10T10:22:42;4.78;;;2.63;;
61015;SDS011;46902;52.920;6.536;2023-05-10T10:25:11;6.18;;;2.95;;
61015;SDS011;46902;52.920;6.536;2023-05-10T10:36:15;3.58;;;2.53;;
61015;SDS011;46902;52.920;6.536;2023-05-10T10:50:02;4.32;;;3.33;;
61015;SDS011;46902;52.920;6.536;2023-05-10T10:52:32;4.80;;;2.92;;
61015;SDS011;46902;52.920;6.536;2023-05-10T10:55:09;4.65;;;3.45;;
61015;SDS011;46902;52.920;6.536;2023-05-10T11:00:29;6.63;;;2.90;;
61015;SDS011;46902;52.920;6.536;2023-05-10T11:02:59;4.70;;;3.58;;
61015;SDS011;46902;52.920;6.536;2023-05-10T11:08:13;5.85;;;3.08;;
61015;SDS011;46902;52.920;6.536;2023-05-10T11:10:40;4.15;;;3.20;;
61015;SDS011;46902;52.920;6.536;2023-05-10T11:13:14;4.43;;;3.33;;
61015;SDS011;46902;52.920;6.536;2023-05-10T11:15:40;5.13;;;3.58;;
61015;SDS011;46902;52.920;6.536;2023-05-10T11:18:18;5.80;;;3.50;;
61015;SDS011;46902;52.920;6.536;2023-05-10T11:20:59;6.25;;;3.47;;
61015;SDS011;46902;52.920;6.536;2023-05-10T11:26:08;5.43;;;3.22;;
61015;SDS011;46902;52.920;6.536;2023-05-10T11:28:34;5.82;;;3.58;;
61015;SDS011;46902;52.920;6.536;2023-05-10T11:31:06;3.97;;;3.50;;
61015;SDS011;46902;52.920;6.536;2023-05-10T11:33:41;4.43;;;3.58;;
61015;SDS011;46902;52.920;6.536;2023-05-10T11:36:17;4.97;;;3.88;;
61015;SDS011;46902;52.920;6.536;2023-05-10T11:38:44;3.63;;;3.13;;
61015;SDS011;46902;52.920;6.536;2023-05-10T11:41:11;6.68;;;4.18;;
61015;SDS011;46902;52.920;6.536;2023-05-10T11:43:40;5.18;;;3.63;;
61015;SDS011;46902;52.920;6.536;2023-05-10T11:46:11;6.82;;;3.40;;
61015;SDS011;46902;52.920;6.536;2023-05-10T11:48:40;5.00;;;3.38;;
61015;SDS011;46902;52.920;6.536;2023-05-10T11:51:07;5.20;;;3.38;;
61015;SDS011;46902;52.920;6.536;2023-05-10T11:53:33;6.65;;;3.33;;
61015;SDS011;46902;52.920;6.536;2023-05-10T11:56:03;5.40;;;3.67;;
61015;SDS011;46902;52.920;6.536;2023-05-10T11:58:30;4.32;;;3.92;;
61015;SDS011;46902;52.920;6.536;2023-05-10T12:00:56;5.93;;;3.78;;
61015;SDS011;46902;52.920;6.536;2023-05-10T12:03:22;4.22;;;3.60;;
61015;SDS011;46902;52.920;6.536;2023-05-10T12:05:48;5.25;;;4.03;;
61015;SDS011;46902;52.920;6.536;2023-05-10T12:08:14;4.95;;;3.35;;
61015;SDS011;46902;52.920;6.536;2023-05-10T12:10:41;5.10;;;3.40;;
61015;SDS011;46902;52.920;6.536;2023-05-10T12:13:13;5.53;;;3.55;;
61015;SDS011;46902;52.920;6.536;2023-05-10T12:15:40;6.35;;;3.75;;
61015;SDS011;46902;52.920;6.536;2023-05-10T12:18:10;4.35;;;3.63;;
61015;SDS011;46902;52.920;6.536;2023-05-10T12:20:37;6.25;;;5.32;;
61015;SDS011;46902;52.920;6.536;2023-05-10T12:23:03;8.65;;;5.45;;
61015;SDS011;46902;52.920;6.536;2023-05-10T12:25:31;5.28;;;4.75;;
61015;SDS011;46902;52.920;6.536;2023-05-10T12:28:05;5.57;;;4.07;;
61015;SDS011;46902;52.920;6.536;2023-05-10T12:30:32;4.03;;;3.63;;
61015;SDS011;46902;52.920;6.536;2023-05-10T12:33:03;4.43;;;3.35;;
61015;SDS011;46902;52.920;6.536;2023-05-10T12:35:49;5.05;;;3.47;;
61015;SDS011;46902;52.920;6.536;2023-05-10T12:41:00;5.93;;;3.78;;
61015;SDS011;46902;52.920;6.536;2023-05-10T12:43:28;5.78;;;4.15;;
61015;SDS011;46902;52.920;6.536;2023-05-10T12:45:54;7.03;;;4.60;;
61015;SDS011;46902;52.920;6.536;2023-05-10T12:48:20;7.50;;;4.78;;
61015;SDS011;46902;52.920;6.536;2023-05-10T12:50:46;7.13;;;5.22;;
61015;SDS011;46902;52.920;6.536;2023-05-10T12:53:13;8.30;;;5.70;;
61015;SDS011;46902;52.920;6.536;2023-05-10T12:55:40;9.07;;;7.25;;
61015;SDS011;46902;52.920;6.536;2023-05-10T12:58:06;9.25;;;7.55;;
61015;SDS011;46902;52.920;6.536;2023-05-10T13:00:32;10.43;;;7.95;;
61015;SDS011;46902;52.920;6.536;2023-05-10T13:02:58;8.30;;;6.72;;
61015;SDS011;46902;52.920;6.536;2023-05-10T13:05:23;10.50;;;6.90;;
61015;SDS011;46902;52.920;6.536;2023-05-10T13:07:49;8.27;;;6.65;;
61015;SDS011;46902;52.920;6.536;2023-05-10T13:10:15;10.68;;;7.03;;
61015;SDS011;46902;52.920;6.536;2023-05-10T13:12:41;10.75;;;7.40;;
61015;SDS011;46902;52.920;6.536;2023-05-10T13:15:07;13.30;;;6.88;;
61015;SDS011;46902;52.920;6.536;2023-05-10T13:17:33;7.90;;;6.22;;
61015;SDS011;46902;52.920;6.536;2023-05-10T13:19:58;8.95;;;6.82;;
61015;SDS011;46902;52.920;6.536;2023-05-10T13:22:24;10.98;;;7.32;;
61015;SDS011;46902;52.920;6.536;2023-05-10T13:24:50;10.77;;;7.05;;
61015;SDS011;46902;52.920;6.536;2023-05-10T13:27:15;9.90;;;7.47;;
61015;SDS011;46902;52.920;6.536;2023-05-10T13:29:41;10.27;;;7.40;;
61015;SDS011;46902;52.920;6.536;2023-05-10T13:32:06;12.38;;;8.70;;
61015;SDS011;46902;52.920;6.536;2023-05-10T13:34:32;12.70;;;7.80;;
61015;SDS011;46902;52.920;6.536;2023-05-10T13:36:58;10.10;;;7.78;;
61015;SDS011;46902;52.920;6.536;2023-05-10T13:39:23;11.05;;;8.52;;
61015;SDS011;46902;52.920;6.536;2023-05-10T13:41:49;10.95;;;8.82;;
61015;SDS011;46902;52.920;6.536;2023-05-10T13:44:15;11.77;;;8.70;;
61015;SDS011;46902;52.920;6.536;2023-05-10T13:46:41;9.70;;;8.05;;
61015;SDS011;46902;52.920;6.536;2023-05-10T13:49:10;11.02;;;8.00;;
61015;SDS011;46902;52.920;6.536;2023-05-10T13:51:35;9.10;;;7.55;;
61015;SDS011;46902;52.920;6.536;2023-05-10T13:54:04;10.73;;;7.70;;
61015;SDS011;46902;52.920;6.536;2023-05-10T13:56:30;9.23;;;7.78;;
61015;SDS011;46902;52.920;6.536;2023-05-10T13:58:58;9.45;;;7.65;;
61015;SDS011;46902;52.920;6.536;2023-05-10T14:01:24;10.63;;;8.00;;
61015;SDS011;46902;52.920;6.536;2023-05-10T14:03:50;9.18;;;7.38;;
61015;SDS011;46902;52.920;6.536;2023-05-10T14:06:15;9.18;;;7.53;;
61015;SDS011;46902;52.920;6.536;2023-05-10T14:08:41;9.52;;;7.43;;
61015;SDS011;46902;52.920;6.536;2023-05-10T14:11:07;9.98;;;7.13;;
61015;SDS011;46902;52.920;6.536;2023-05-10T14:13:33;9.88;;;8.07;;
61015;SDS011;46902;52.920;6.536;2023-05-10T14:15:58;9.52;;;6.85;;
61015;SDS011;46902;52.920;6.536;2023-05-10T14:18:27;9.95;;;7.35;;
61015;SDS011;46902;52.920;6.536;2023-05-10T14:20:53;8.20;;;7.32;;
61015;SDS011;46902;52.920;6.536;2023-05-10T14:23:19;9.95;;;7.82;;
61015;SDS011;46902;52.920;6.536;2023-05-10T14:25:49;8.18;;;7.28;;
61015;SDS011;46902;52.920;6.536;2023-05-10T14:28:15;8.45;;;7.40;;
61015;SDS011;46902;52.920;6.536;2023-05-10T14:30:42;8.65;;;7.07;;
61015;SDS011;46902;52.920;6.536;2023-05-10T14:33:08;10.32;;;7.47;;
61015;SDS011;46902;52.920;6.536;2023-05-10T14:35:33;9.10;;;7.35;;
61015;SDS011;46902;52.920;6.536;2023-05-10T14:37:59;8.30;;;7.40;;
61015;SDS011;46902;52.920;6.536;2023-05-10T14:40:25;8.98;;;7.55;;
61015;SDS011;46902;52.920;6.536;2023-05-10T14:42:51;11.07;;;7.82;;
61015;SDS011;46902;52.920;6.536;2023-05-10T14:45:18;11.30;;;7.60;;
61015;SDS011;46902;52.920;6.536;2023-05-10T14:47:43;10.25;;;6.70;;
61015;SDS011;46902;52.920;6.536;2023-05-10T14:50:09;8.68;;;6.55;;
61015;SDS011;46902;52.920;6.536;2023-05-10T14:52:35;8.05;;;6.28;;
61015;SDS011;46902;52.920;6.536;2023-05-10T14:55:01;9.20;;;6.80;;
61015;SDS011;46902;52.920;6.536;2023-05-10T14:57:27;8.55;;;6.93;;
61015;SDS011;46902;52.920;6.536;2023-05-10T14:59:54;7.75;;;6.60;;
61015;SDS011;46902;52.920;6.536;2023-05-10T15:02:21;9.02;;;6.95;;
61015;SDS011;46902;52.920;6.536;2023-05-10T15:04:47;8.60;;;6.47;;
61015;SDS011;46902;52.920;6.536;2023-05-10T15:07:12;7.97;;;6.72;;
61015;SDS011;46902;52.920;6.536;2023-05-10T15:09:40;8.30;;;6.32;;
61015;SDS011;46902;52.920;6.536;2023-05-10T15:12:06;8.73;;;7.25;;
61015;SDS011;46902;52.920;6.536;2023-05-10T15:14:31;7.68;;;6.88;;
61015;SDS011;46902;52.920;6.536;2023-05-10T15:16:58;8.27;;;6.78;;
61015;SDS011;46902;52.920;6.536;2023-05-10T15:19:24;11.02;;;7.82;;
61015;SDS011;46902;52.920;6.536;2023-05-10T15:21:49;8.23;;;7.00;;
61015;SDS011;46902;52.920;6.536;2023-05-10T15:24:15;13.90;;;7.63;;
61015;SDS011;46902;52.920;6.536;2023-05-10T15:26:41;10.27;;;7.47;;
61015;SDS011;46902;52.920;6.536;2023-05-10T15:29:06;10.48;;;8.13;;
61015;SDS011;46902;52.920;6.536;2023-05-10T15:31:32;9.85;;;7.82;;
61015;SDS011;46902;52.920;6.536;2023-05-10T15:34:01;10.93;;;7.72;;
61015;SDS011;46902;52.920;6.536;2023-05-10T15:36:26;8.85;;;7.95;;